Capitol Logistics 972


EHAM
Schiphol International Airport
Amsterdam, NL
KORD
Chicago O'Hare International Airport
Chicago, US

Activity Log

Date Flight Route Aircraft Duration
10/14/2019 CPX972 BERGI M90 NEXUS UP59 BALIX 6120N N6230 6340N 6350N LIBOR N866A RODBO SEMTO VEPTU PEMLU SSM WYNDE9 B744 9h 16m

Route Details

Aircraft Information
Primary: Boeing 747-400BCF
Backup: Boeing 777-200LRF
Route Data
Distance: 3580nm
Sched. Duration: 8h 44m
Avg. Duration: 9h 16m (+72m)
Times Flown: 1
Recm'd Route: BERGI M90 NEXUS UP59 BALIX 6120N N6230 6340N 6350N LIBOR N866A RODBO SEMTO VEPTU PEMLU SSM WYNDE9
Planned Altitude: 32,000ft
Origin Wx: EHAM 252055Z 28022G32KT 7000 SHRA FEW016 FEW020CB SCT026 04/02 Q1007 TEMPO 9999 -SHRA
Dest. Wx: KORD 252051Z 06018G23KT 10SM SCT023 OVC029 01/M05 A2992 RMK AO2 PK WND 07026/2027 SLP139 T00061050 55013
Notes: SEASONAL FLIGHT | PERISHABLE CARGO

Financial History
Total Freight: 183,068lbs
Average Load: 183,068lbs/flt
Fuel Used: 180,000lbs
Avg. Fuel Used: 180,000lbs/flt
Fuel Expense: $144,000
Avg. Fuel Expense: $144,000
Avg. Fuel Cost: $0.80/lbs
Total Gross Income: $968,430
Pilot Pay: $229
Total Expenses: $104,642
Total Revenue: $717,383
Average Revenue: $968,429.75